Time;durP1;ratioP1;P1;durP2;ratioP2;P2;SDS_P1;SDS_P2;PMS_P1;PMS_P2;Temp;Humidity;BMP_temperature;BMP_pressure;BME280_temperature;BME280_humidity;BME280_pressure;Samples;Min_cycle;Max_cycle;Signal;HPM_P1;HPM_P2
2022/07/30 00:01:16;;;;;;;11.43;8.38;;;16.40;99.90;;;;;;5037681;28;20112;-69
2022/07/30 00:03:42;;;;;;;14.20;9.43;;;16.40;99.90;;;;;;5055176;28;20075;-72
2022/07/30 00:06:08;;;;;;;13.93;8.90;;;16.30;99.90;;;;;;5057876;28;20048;-72
2022/07/30 00:08:33;;;;;;;15.68;9.35;;;16.20;99.90;;;;;;5060174;28;20075;-70
2022/07/30 00:10:59;;;;;;;14.55;9.55;;;16.30;99.90;;;;;;5054752;28;20080;-70
2022/07/30 00:13:25;;;;;;;14.40;10.13;;;16.20;99.90;;;;;;5036486;28;20048;-71
2022/07/30 00:15:50;;;;;;;16.70;9.90;;;16.10;99.90;;;;;;5053742;28;20041;-72
2022/07/30 00:18:16;;;;;;;11.10;10.00;;;16.10;99.90;;;;;;5037618;28;20036;-70
2022/07/30 00:20:42;;;;;;;14.95;10.80;;;16.00;99.90;;;;;;5059799;28;20044;-71
2022/07/30 00:23:07;;;;;;;15.45;11.07;;;16.10;99.90;;;;;;5039614;28;20645;-69
2022/07/30 00:25:33;;;;;;;15.77;11.15;;;16.00;99.90;;;;;;5052248;28;20131;-71
2022/07/30 00:27:59;;;;;;;15.77;10.10;;;15.90;99.90;;;;;;5034414;28;20048;-70
2022/07/30 00:30:24;;;;;;;16.50;11.80;;;16.00;99.90;;;;;;5055981;28;20044;-71
2022/07/30 00:32:50;;;;;;;17.10;10.98;;;15.90;99.90;;;;;;5055675;28;20059;-71
2022/07/30 00:35:16;;;;;;;15.48;11.68;;;15.90;99.90;;;;;;5052367;28;20050;-70
2022/07/30 00:37:42;;;;;;;14.75;11.30;;;15.90;99.90;;;;;;5052917;28;20055;-71
2022/07/30 00:40:08;;;;;;;12.95;10.05;;;16.00;99.90;;;;;;5056180;28;20293;-69
2022/07/30 00:42:46;;;;;;;15.85;9.00;;;16.00;99.90;;;;;;5048558;28;20086;-72
2022/07/30 00:45:13;;;;;;;11.82;8.82;;;16.10;99.90;;;;;;5050369;28;20214;-72
2022/07/30 00:47:39;;;;;;;11.65;8.75;;;16.10;99.90;;;;;;5034359;28;20041;-69
2022/07/30 00:50:07;;;;;;;12.45;8.35;;;16.10;99.90;;;;;;5053862;28;20632;-72
2022/07/30 00:52:35;;;;;;;10.63;9.07;;;16.10;99.90;;;;;;5036439;28;20055;-70
2022/07/30 00:55:01;;;;;;;11.32;8.80;;;16.10;99.90;;;;;;5052138;28;20044;-69
2022/07/30 00:57:27;;;;;;;12.05;9.40;;;16.00;99.90;;;;;;5040884;28;20097;-70
2022/07/30 00:59:53;;;;;;;12.38;9.25;;;16.00;99.90;;;;;;5057659;28;20047;-70
2022/07/30 01:02:19;;;;;;;12.30;9.88;;;15.90;99.90;;;;;;5035667;28;20032;-72
2022/07/30 01:04:45;;;;;;;11.48;10.02;;;15.80;99.90;;;;;;5035729;28;20056;-70
2022/07/30 01:07:11;;;;;;;14.02;10.48;;;15.80;99.90;;;;;;5058091;28;20231;-72
2022/07/30 01:09:37;;;;;;;13.80;9.88;;;15.70;99.90;;;;;;5055138;28;20054;-71
2022/07/30 01:12:05;;;;;;;12.70;10.13;;;15.70;99.90;;;;;;5033182;28;20061;-72
2022/07/30 01:14:33;;;;;;;12.93;10.88;;;15.70;99.90;;;;;;5034079;28;20048;-71
2022/07/30 01:16:59;;;;;;;15.43;11.02;;;15.50;99.90;;;;;;5028675;28;20283;-71
2022/07/30 01:19:47;;;;;;;15.27;11.50;;;15.50;99.90;;;;;;5034633;28;20053;-70
2022/07/30 01:23:09;;;;;;;15.45;11.15;;;15.40;99.90;;;;;;5035979;28;20151;-70
2022/07/30 01:25:59;;;;;;;13.00;11.60;;;15.30;99.90;;;;;;4968506;28;20841;-70
2022/07/30 01:28:30;;;;;;;16.05;12.55;;;15.10;99.90;;;;;;4983205;28;20045;-70
2022/07/30 01:30:57;;;;;;;17.58;13.50;;;15.00;99.90;;;;;;5014728;28;20140;-71
2022/07/30 01:33:25;;;;;;;14.85;12.45;;;15.00;99.90;;;;;;5039896;28;20060;-71
2022/07/30 01:35:52;;;;;;;16.17;12.30;;;14.90;99.90;;;;;;5036825;28;20419;-70
2022/07/30 01:38:21;;;;;;;16.83;14.82;;;14.80;99.90;;;;;;5035323;28;20618;-71
2022/07/30 01:40:51;;;;;;;19.75;16.45;;;14.70;99.90;;;;;;5027891;28;20037;-70
2022/07/30 01:43:19;;;;;;;19.75;17.05;;;14.70;99.90;;;;;;5036724;28;20040;-70
2022/07/30 01:45:47;;;;;;;22.13;18.30;;;14.60;99.90;;;;;;5036707;28;20687;-69
2022/07/30 01:48:17;;;;;;;21.92;16.60;;;14.50;99.90;;;;;;5039788;28;20045;-69
2022/07/30 01:50:45;;;;;;;22.65;16.58;;;14.40;99.90;;;;;;5037894;28;20073;-70
2022/07/30 01:53:16;;;;;;;21.48;18.77;;;14.50;99.90;;;;;;5036222;28;20049;-70
2022/07/30 01:55:43;;;;;;;21.67;17.88;;;14.30;99.90;;;;;;5034253;28;20139;-70
2022/07/30 01:58:11;;;;;;;23.25;18.98;;;14.30;99.90;;;;;;5038918;28;20073;-70
2022/07/30 02:00:39;;;;;;;20.27;16.83;;;14.30;99.90;;;;;;5035650;28;20064;-74
2022/07/30 02:03:07;;;;;;;19.90;15.85;;;14.20;99.90;;;;;;5032628;28;20044;-71
2022/07/30 02:05:35;;;;;;;19.17;15.23;;;14.10;99.90;;;;;;5037666;28;20132;-70
2022/07/30 02:08:10;;;;;;;18.45;16.48;;;14.20;99.90;;;;;;5035830;28;20044;-69
2022/07/30 02:10:44;;;;;;;20.17;17.38;;;14.10;99.90;;;;;;5037537;28;20059;-70
2022/07/30 02:13:12;;;;;;;20.25;16.63;;;14.10;99.90;;;;;;5037310;28;20617;-69
2022/07/30 02:15:47;;;;;;;16.65;14.95;;;14.00;99.90;;;;;;5036317;28;20048;-71
2022/07/30 02:18:30;;;;;;;21.63;18.50;;;14.00;99.90;;;;;;5039468;28;20044;-71
2022/07/30 02:21:04;;;;;;;27.13;21.33;;;14.00;99.90;;;;;;5052378;28;20128;-70
2022/07/30 02:23:35;;;;;;;22.63;18.13;;;14.00;99.90;;;;;;5058479;28;20387;-71
2022/07/30 02:26:02;;;;;;;24.38;18.63;;;13.90;99.90;;;;;;5056057;28;20094;-70
2022/07/30 02:28:29;;;;;;;26.80;21.55;;;14.00;99.90;;;;;;5059291;28;20052;-72
2022/07/30 02:30:59;;;;;;;26.88;21.33;;;13.90;99.90;;;;;;5052648;28;20694;-70
2022/07/30 02:33:36;;;;;;;22.70;20.20;;;14.00;99.90;;;;;;5039584;28;20125;-69
2022/07/30 02:36:04;;;;;;;25.60;18.77;;;14.00;99.90;;;;;;5058435;28;20056;-69
2022/07/30 02:38:31;;;;;;;24.52;19.45;;;14.00;99.90;;;;;;5036514;28;20506;-70
2022/07/30 02:40:59;;;;;;;20.00;17.88;;;14.10;99.90;;;;;;5060594;28;20048;-70
2022/07/30 02:43:26;;;;;;;20.70;18.55;;;14.00;99.90;;;;;;5038508;28;20766;-70
2022/07/30 02:45:52;;;;;;;24.33;18.60;;;14.00;99.90;;;;;;5052616;28;20133;-71
2022/07/30 02:48:21;;;;;;;24.08;20.60;;;14.10;99.90;;;;;;5058618;28;20123;-69
2022/07/30 02:50:49;;;;;;;24.65;19.65;;;14.00;99.90;;;;;;5033165;28;20135;-70
2022/07/30 02:53:16;;;;;;;25.48;20.75;;;14.10;99.90;;;;;;5055256;28;20249;-71
2022/07/30 02:55:44;;;;;;;23.38;20.88;;;14.00;99.90;;;;;;5059402;28;20416;-70
2022/07/30 02:58:11;;;;;;;24.48;21.40;;;14.10;99.90;;;;;;5056833;28;20531;-69
2022/07/30 03:00:38;;;;;;;27.60;21.40;;;14.00;99.90;;;;;;5050763;28;20052;-71
2022/07/30 03:03:08;;;;;;;22.85;18.95;;;14.00;99.90;;;;;;5056613;28;20070;-71
2022/07/30 03:05:35;;;;;;;29.48;23.75;;;14.00;99.90;;;;;;5057549;28;20040;-71
2022/07/30 03:08:02;;;;;;;22.75;20.27;;;13.90;99.90;;;;;;5054320;28;20044;-71
2022/07/30 03:10:29;;;;;;;31.38;24.25;;;13.80;99.90;;;;;;5032364;28;20048;-71
2022/07/30 03:12:56;;;;;;;23.45;20.88;;;13.80;99.90;;;;;;5060733;28;20064;-68
2022/07/30 03:15:22;;;;;;;28.85;24.08;;;13.70;99.90;;;;;;5053512;28;20040;-72
2022/07/30 03:17:51;;;;;;;28.55;23.25;;;13.70;99.90;;;;;;5057529;28;20048;-71
2022/07/30 03:20:20;;;;;;;28.77;23.70;;;13.60;99.90;;;;;;5059441;28;20048;-70
2022/07/30 03:22:50;;;;;;;23.73;20.63;;;13.70;99.90;;;;;;5037589;28;20114;-70
2022/07/30 03:25:21;;;;;;;26.65;23.73;;;13.70;99.90;;;;;;5054279;28;20044;-70
2022/07/30 03:27:48;;;;;;;25.63;22.88;;;13.70;99.90;;;;;;5053289;28;20095;-70
2022/07/30 03:30:14;;;;;;;29.38;25.27;;;13.50;99.90;;;;;;5057065;28;20173;-69
2022/07/30 03:32:41;;;;;;;25.63;22.52;;;13.50;99.90;;;;;;5057715;28;20195;-70
2022/07/30 03:35:08;;;;;;;32.67;26.08;;;13.50;99.90;;;;;;5032369;28;20056;-71
2022/07/30 03:37:37;;;;;;;29.20;24.27;;;13.40;99.90;;;;;;5052995;28;20040;-69
2022/07/30 03:40:05;;;;;;;26.10;22.80;;;13.50;99.90;;;;;;5035842;28;20085;-71
2022/07/30 03:42:33;;;;;;;32.58;25.33;;;13.50;99.90;;;;;;5059297;28;20047;-69
2022/07/30 03:45:01;;;;;;;28.92;24.17;;;13.40;99.90;;;;;;5049483;28;20036;-71
2022/07/30 03:47:29;;;;;;;30.73;25.92;;;13.40;99.90;;;;;;5051431;28;20320;-72
2022/07/30 03:49:54;;;;;;;29.05;24.45;;;13.40;99.90;;;;;;5052991;28;20048;-69
2022/07/30 03:52:20;;;;;;;27.73;23.30;;;13.40;99.90;;;;;;5038822;28;20093;-71
2022/07/30 03:54:47;;;;;;;27.75;22.83;;;13.40;99.90;;;;;;5023958;28;20075;-70
2022/07/30 03:57:13;;;;;;;26.75;23.58;;;13.40;99.90;;;;;;5054877;28;20028;-73
2022/07/30 03:59:39;;;;;;;24.50;21.88;;;13.30;99.90;;;;;;5052432;28;20079;-69
2022/07/30 04:02:04;;;;;;;28.23;24.60;;;13.40;99.90;;;;;;5020320;28;20536;-69
2022/07/30 04:04:30;;;;;;;33.25;27.20;;;13.40;99.90;;;;;;5061310;28;20051;-71
2022/07/30 04:06:57;;;;;;;27.45;23.75;;;13.40;99.90;;;;;;5059981;28;20091;-69
2022/07/30 04:09:23;;;;;;;26.40;23.13;;;13.30;99.90;;;;;;5034683;28;20044;-69
2022/07/30 04:11:49;;;;;;;28.08;23.92;;;13.30;99.90;;;;;;5052618;28;20171;-71
2022/07/30 04:14:15;;;;;;;27.52;24.13;;;13.40;99.90;;;;;;5056524;28;20089;-70
2022/07/30 04:16:49;;;;;;;34.00;28.23;;;13.30;99.90;;;;;;5060199;28;20052;-70
2022/07/30 04:19:21;;;;;;;30.60;27.08;;;13.50;99.90;;;;;;5052061;28;20132;-71
2022/07/30 04:21:49;;;;;;;33.65;27.38;;;13.50;99.90;;;;;;5055703;28;20040;-70
2022/07/30 04:24:17;;;;;;;29.05;25.85;;;13.60;99.90;;;;;;5037842;28;20051;-69
2022/07/30 04:26:43;;;;;;;29.75;25.67;;;13.50;99.90;;;;;;5056756;28;20764;-71
2022/07/30 04:29:10;;;;;;;25.08;22.17;;;13.50;99.90;;;;;;5053483;28;20041;-70
2022/07/30 04:31:36;;;;;;;27.38;24.48;;;13.40;99.90;;;;;;5034701;28;20475;-70
2022/07/30 04:34:03;;;;;;;24.73;22.17;;;13.40;99.90;;;;;;5056850;28;20056;-69
2022/07/30 04:36:34;;;;;;;24.60;22.10;;;13.60;99.90;;;;;;5047911;28;20131;-70
2022/07/30 04:39:00;;;;;;;25.35;22.67;;;13.60;99.90;;;;;;5037770;28;20050;-69
2022/07/30 04:41:26;;;;;;;25.27;22.67;;;13.60;99.90;;;;;;5032050;28;20571;-69
2022/07/30 04:43:52;;;;;;;28.33;25.30;;;13.60;99.90;;;;;;5036929;28;20392;-70
2022/07/30 04:46:18;;;;;;;26.55;23.77;;;13.70;99.90;;;;;;5055271;28;20047;-68
2022/07/30 04:48:43;;;;;;;24.08;21.70;;;13.70;99.90;;;;;;5057241;28;20103;-71
2022/07/30 04:51:16;;;;;;;25.50;23.00;;;13.80;99.90;;;;;;5014454;28;20035;-69
2022/07/30 04:53:43;;;;;;;28.15;25.33;;;13.80;99.90;;;;;;5034275;28;20123;-69
2022/07/30 04:56:10;;;;;;;39.85;31.67;;;13.90;99.90;;;;;;5059426;28;20504;-69
2022/07/30 04:58:36;;;;;;;35.15;31.10;;;13.90;99.90;;;;;;5053856;28;20056;-70
2022/07/30 05:01:03;;;;;;;36.70;31.38;;;14.10;99.90;;;;;;5034298;28;20800;-70
2022/07/30 05:03:30;;;;;;;33.80;30.20;;;14.10;99.90;;;;;;5058748;28;20590;-70
2022/07/30 05:05:57;;;;;;;34.60;30.95;;;14.20;99.90;;;;;;5060854;28;20153;-70
2022/07/30 05:08:24;;;;;;;39.05;30.92;;;14.20;99.90;;;;;;5038502;28;20045;-71
2022/07/30 05:10:50;;;;;;;35.22;31.52;;;14.30;99.90;;;;;;5054391;28;20137;-71
2022/07/30 05:13:16;;;;;;;37.78;31.02;;;14.50;99.90;;;;;;5039483;28;20078;-70
2022/07/30 05:15:45;;;;;;;35.72;30.98;;;14.50;99.90;;;;;;5056908;28;20740;-73
2022/07/30 05:18:12;;;;;;;33.97;30.17;;;14.60;99.90;;;;;;5060981;28;20468;-70
2022/07/30 05:20:37;;;;;;;37.55;28.58;;;14.60;99.90;;;;;;5062966;28;20040;-71
2022/07/30 05:23:03;;;;;;;31.88;28.50;;;14.80;99.90;;;;;;5056913;28;20044;-69
2022/07/30 05:25:30;;;;;;;30.92;27.67;;;14.80;99.90;;;;;;5055162;28;20362;-72
2022/07/30 05:27:57;;;;;;;28.33;25.42;;;14.80;99.90;;;;;;5063001;28;20040;-73
2022/07/30 05:30:23;;;;;;;28.75;25.58;;;15.00;99.90;;;;;;5064335;28;20441;-70
2022/07/30 05:32:49;;;;;;;26.85;23.95;;;15.20;99.90;;;;;;5055896;28;20123;-69
2022/07/30 05:35:15;;;;;;;24.52;21.98;;;15.20;99.90;;;;;;5059459;28;20100;-69
2022/07/30 05:37:41;;;;;;;24.73;21.65;;;15.30;99.90;;;;;;5058471;28;20044;-70
2022/07/30 05:40:07;;;;;;;23.42;20.73;;;15.60;99.90;;;;;;5055128;28;20540;-72
2022/07/30 05:42:33;;;;;;;23.95;19.45;;;15.90;99.90;;;;;;5052259;28;20044;-69
2022/07/30 05:44:59;;;;;;;18.63;15.75;;;16.30;99.90;;;;;;5054884;28;20090;-70
2022/07/30 05:47:26;;;;;;;19.40;17.17;;;16.60;99.90;;;;;;5055446;28;20755;-70
2022/07/30 05:49:52;;;;;;;18.73;16.60;;;16.80;99.90;;;;;;5061895;28;20036;-71
2022/07/30 05:52:18;;;;;;;16.55;14.65;;;17.10;99.90;;;;;;5055068;28;20047;-69
2022/07/30 05:54:44;;;;;;;14.15;12.65;;;17.30;99.90;;;;;;5056692;28;20105;-68
2022/07/30 05:57:10;;;;;;;16.92;11.80;;;17.50;99.90;;;;;;5042480;28;20479;-70
2022/07/30 05:59:35;;;;;;;14.35;12.13;;;17.80;99.90;;;;;;5019895;28;20040;-69
2022/07/30 06:02:02;;;;;;;12.15;10.88;;;18.00;99.90;;;;;;5058557;28;20048;-72
2022/07/30 06:04:28;;;;;;;14.57;12.13;;;18.10;99.90;;;;;;5065814;28;20040;-69
2022/07/30 06:06:54;;;;;;;12.98;10.50;;;18.30;99.90;;;;;;5061423;28;20046;-70
2022/07/30 06:09:20;;;;;;;14.50;9.98;;;18.50;99.90;;;;;;5039325;28;20047;-72
2022/07/30 06:11:46;;;;;;;13.07;10.10;;;18.60;99.90;;;;;;5062992;28;20060;-70
2022/07/30 06:14:12;;;;;;;13.80;9.98;;;18.80;99.90;;;;;;5057809;28;20307;-72
2022/07/30 06:16:37;;;;;;;13.82;8.95;;;19.00;99.90;;;;;;5056334;28;20038;-70
2022/07/30 06:19:03;;;;;;;12.00;9.02;;;19.10;99.90;;;;;;5058465;28;20146;-71
2022/07/30 06:21:29;;;;;;;11.00;8.63;;;19.20;99.90;;;;;;5044078;28;20123;-69
2022/07/30 06:23:55;;;;;;;10.75;8.65;;;19.30;99.90;;;;;;5057274;28;20051;-71
2022/07/30 06:26:20;;;;;;;13.35;8.98;;;19.40;99.90;;;;;;5059361;28;20044;-71
2022/07/30 06:28:46;;;;;;;14.20;9.30;;;19.50;99.90;;;;;;5060199;28;20324;-71
2022/07/30 06:31:12;;;;;;;14.80;8.95;;;19.70;99.90;;;;;;5057077;28;20044;-69
2022/07/30 06:33:38;;;;;;;11.85;8.55;;;19.90;99.90;;;;;;5061419;28;20043;-69
2022/07/30 06:36:04;;;;;;;11.98;8.10;;;19.90;99.90;;;;;;5041232;28;20708;-70
2022/07/30 06:38:29;;;;;;;12.10;7.78;;;20.10;99.90;;;;;;5056822;28;20570;-70
2022/07/30 06:40:55;;;;;;;13.43;8.05;;;20.40;99.90;;;;;;5057778;28;20052;-69
2022/07/30 06:43:21;;;;;;;13.32;7.60;;;20.50;99.90;;;;;;5023949;28;20144;-70
2022/07/30 06:45:47;;;;;;;9.52;6.43;;;20.60;99.90;;;;;;5055771;28;20169;-71
2022/07/30 06:48:13;;;;;;;9.88;6.80;;;20.70;99.90;;;;;;5052720;28;20036;-69
2022/07/30 06:50:40;;;;;;;8.63;6.78;;;20.70;99.90;;;;;;5035496;28;20634;-68
2022/07/30 06:53:06;;;;;;;11.13;6.82;;;20.80;99.90;;;;;;5035524;28;20067;-70
2022/07/30 06:55:32;;;;;;;11.60;6.50;;;20.80;99.90;;;;;;5054761;28;20892;-70
2022/07/30 06:57:58;;;;;;;9.27;7.07;;;20.80;99.90;;;;;;5040243;28;20106;-69
2022/07/30 07:00:24;;;;;;;10.85;7.60;;;20.90;99.90;;;;;;5056256;28;21020;-69
2022/07/30 07:02:50;;;;;;;10.70;6.75;;;20.80;99.90;;;;;;5014075;28;20108;-70
2022/07/30 07:05:16;;;;;;;10.27;6.47;;;21.00;99.90;;;;;;5053333;28;20303;-72
2022/07/30 07:07:42;;;;;;;10.07;6.70;;;21.10;99.90;;;;;;5036986;28;20472;-69
2022/07/30 07:10:09;;;;;;;11.15;6.55;;;21.30;99.90;;;;;;5037647;28;20720;-72
2022/07/30 07:12:35;;;;;;;8.75;6.07;;;21.30;99.90;;;;;;5069476;28;20052;-70
2022/07/30 07:15:01;;;;;;;7.10;6.25;;;21.50;99.90;;;;;;5061458;28;20048;-70
2022/07/30 07:17:27;;;;;;;9.10;6.75;;;21.50;99.90;;;;;;5035698;28;20041;-70
2022/07/30 07:19:53;;;;;;;10.18;6.63;;;21.70;99.90;;;;;;5053392;28;20055;-68
2022/07/30 07:22:19;;;;;;;9.57;6.30;;;21.70;99.90;;;;;;5069707;28;20039;-70
2022/07/30 07:24:44;;;;;;;9.70;6.38;;;21.80;99.90;;;;;;5071040;28;20440;-69
2022/07/30 07:27:10;;;;;;;8.55;6.07;;;21.80;99.90;;;;;;5072329;28;20040;-70
2022/07/30 07:29:36;;;;;;;10.25;7.43;;;21.90;99.90;;;;;;5070417;28;20044;-71
2022/07/30 07:32:01;;;;;;;8.80;6.55;;;22.00;99.90;;;;;;5069575;28;20044;-70
2022/07/30 07:34:27;;;;;;;10.88;7.55;;;22.10;99.90;;;;;;5044868;28;20722;-73
2022/07/30 07:36:53;;;;;;;8.43;6.50;;;22.10;99.90;;;;;;5051149;28;20048;-71
2022/07/30 07:39:18;;;;;;;10.60;7.22;;;22.10;99.90;;;;;;5027159;28;20055;-69
2022/07/30 07:41:44;;;;;;;9.68;6.40;;;22.20;99.90;;;;;;5043123;28;20592;-71
2022/07/30 07:44:10;;;;;;;11.82;7.65;;;22.30;99.90;;;;;;5051339;28;20036;-70
2022/07/30 07:46:35;;;;;;;11.02;7.38;;;22.50;99.90;;;;;;5041512;28;20072;-69
2022/07/30 07:49:01;;;;;;;12.38;7.38;;;22.50;99.90;;;;;;5056790;28;20055;-70
2022/07/30 07:51:27;;;;;;;12.23;7.78;;;22.60;99.90;;;;;;5032042;28;20060;-71
2022/07/30 07:53:53;;;;;;;9.02;6.72;;;22.60;99.90;;;;;;5049761;28;20424;-72
2022/07/30 07:56:19;;;;;;;10.10;7.18;;;22.60;99.90;;;;;;5043081;28;20236;-72
2022/07/30 07:58:46;;;;;;;9.50;7.38;;;22.70;99.90;;;;;;5058700;28;20045;-73
2022/07/30 08:01:12;;;;;;;11.10;7.03;;;22.70;99.90;;;;;;5049721;28;20051;-72
2022/07/30 08:03:38;;;;;;;12.35;6.60;;;22.80;99.90;;;;;;5043632;28;20048;-69
2022/07/30 08:06:04;;;;;;;7.93;5.88;;;23.00;99.90;;;;;;5058460;28;20123;-70
2022/07/30 08:08:29;;;;;;;11.77;7.10;;;23.10;99.90;;;;;;5031214;28;20028;-69
2022/07/30 08:10:55;;;;;;;10.27;6.78;;;23.20;99.90;;;;;;5048916;28;20056;-71
2022/07/30 08:13:22;;;;;;;8.77;6.50;;;23.10;99.90;;;;;;5049392;28;20067;-70
2022/07/30 08:15:48;;;;;;;10.98;6.72;;;23.30;99.90;;;;;;5033271;28;20082;-71
2022/07/30 08:18:14;;;;;;;9.02;5.97;;;23.30;99.90;;;;;;5034214;28;20450;-71
2022/07/30 08:20:40;;;;;;;9.20;5.43;;;23.50;99.90;;;;;;5068956;28;20686;-69
2022/07/30 08:23:07;;;;;;;10.05;5.35;;;23.60;99.90;;;;;;5066295;28;20058;-70
2022/07/30 08:25:33;;;;;;;9.32;5.15;;;23.70;99.90;;;;;;5065116;28;20044;-72
2022/07/30 08:28:01;;;;;;;9.45;4.82;;;23.90;99.90;;;;;;5025212;28;20153;-71
2022/07/30 08:30:28;;;;;;;6.68;4.25;;;24.10;99.90;;;;;;5047620;28;20135;-69
2022/07/30 08:32:53;;;;;;;10.35;4.93;;;24.30;99.90;;;;;;5033091;28;20059;-69
2022/07/30 08:35:19;;;;;;;7.60;4.32;;;24.50;99.90;;;;;;5063005;28;20044;-69
2022/07/30 08:37:45;;;;;;;7.00;3.80;;;24.70;99.90;;;;;;5051709;28;20590;-71
2022/07/30 08:40:11;;;;;;;6.63;4.00;;;24.80;99.90;;;;;;5055161;28;20044;-73
2022/07/30 08:42:37;;;;;;;7.03;3.63;;;24.80;99.90;;;;;;5051537;28;20958;-71
2022/07/30 08:45:04;;;;;;;7.60;3.65;;;24.90;99.90;;;;;;5069069;28;20131;-69
2022/07/30 08:47:32;;;;;;;6.68;3.47;;;25.20;99.90;;;;;;5069077;28;20792;-71
2022/07/30 08:50:04;;;;;;;15.95;5.60;;;25.20;99.90;;;;;;5054323;28;20088;-70
2022/07/30 08:52:32;;;;;;;9.10;4.43;;;25.10;99.90;;;;;;5054947;28;20117;-69
2022/07/30 08:54:59;;;;;;;9.23;4.28;;;25.00;99.90;;;;;;5070403;28;20800;-69
2022/07/30 08:57:29;;;;;;;8.07;3.90;;;25.00;99.90;;;;;;5073147;28;20489;-70
2022/07/30 08:59:59;;;;;;;8.23;3.40;;;24.80;99.90;;;;;;5074370;28;20531;-70
2022/07/30 09:02:25;;;;;;;6.78;2.97;;;25.30;99.90;;;;;;5075516;28;20052;-72
2022/07/30 09:04:51;;;;;;;5.07;2.90;;;25.50;99.90;;;;;;5057235;28;20056;-71
2022/07/30 09:07:17;;;;;;;5.10;3.10;;;25.50;99.90;;;;;;5054650;28;20044;-71
2022/07/30 09:09:43;;;;;;;5.22;2.72;;;25.80;99.90;;;;;;5072473;28;20145;-71
2022/07/30 09:12:31;;;;;;;6.65;3.53;;;25.90;99.90;;;;;;5043249;28;20056;-73
2022/07/30 09:15:11;;;;;;;7.35;2.70;;;26.10;99.90;;;;;;5035667;28;20045;-70
2022/07/30 09:18:00;;;;;;;6.22;3.20;;;26.10;99.90;;;;;;5034144;28;20606;-71
2022/07/30 09:20:34;;;;;;;6.03;2.85;;;26.00;99.90;;;;;;5022164;28;20443;-70
2022/07/30 09:23:02;;;;;;;7.65;2.58;;;25.90;99.90;;;;;;5048954;28;20040;-70
2022/07/30 09:25:42;;;;;;;12.88;3.50;;;25.60;99.90;;;;;;5071810;28;20070;-70
2022/07/30 09:28:09;;;;;;;9.10;3.55;;;25.40;99.90;;;;;;5071049;28;20095;-70
2022/07/30 09:30:53;;;;;;;6.40;2.88;;;25.20;99.90;;;;;;5057385;28;20048;-69
2022/07/30 09:33:33;;;;;;;6.32;2.80;;;25.10;99.90;;;;;;5059949;28;20036;-70
2022/07/30 09:36:00;;;;;;;6.88;2.78;;;25.50;99.90;;;;;;5054081;28;20103;-71
2022/07/30 09:38:26;;;;;;;9.43;3.60;;;25.40;99.90;;;;;;5054198;28;20164;-69
2022/07/30 09:40:54;;;;;;;8.75;3.05;;;25.60;99.90;;;;;;5051848;28;20048;-69
2022/07/30 09:43:19;;;;;;;8.20;2.80;;;26.30;99.90;;;;;;5039660;28;20790;-70
2022/07/30 09:45:54;;;;;;;7.88;2.40;;;26.40;99.90;;;;;;5052161;28;20056;-72
2022/07/30 09:48:26;;;;;;;6.55;2.38;;;26.30;99.90;;;;;;5035016;28;20788;-71
2022/07/30 09:50:52;;;;;;;9.38;2.80;;;26.00;99.90;;;;;;5063033;28;20043;-69
2022/07/30 09:53:21;;;;;;;10.05;4.40;;;25.00;99.90;;;;;;5018859;28;20395;-71
2022/07/30 09:55:47;;;;;;;8.35;2.40;;;24.70;99.90;;;;;;5040504;28;20052;-70
2022/07/30 09:58:13;;;;;;;8.40;2.55;;;24.50;99.90;;;;;;5052242;28;20306;-71
2022/07/30 10:00:39;;;;;;;8.98;2.97;;;24.60;99.90;;;;;;5066690;28;20086;-72
2022/07/30 10:03:19;;;;;;;10.05;3.00;;;24.50;99.90;;;;;;5039152;28;20576;-72
2022/07/30 10:05:50;;;;;;;8.00;2.55;;;24.80;99.90;;;;;;5071357;28;20140;-71
2022/07/30 10:08:16;;;;;;;6.90;2.20;;;25.60;99.90;;;;;;5058715;28;20482;-74
2022/07/30 10:10:43;;;;;;;11.55;2.60;;;25.10;99.90;;;;;;5068798;28;20622;-70
2022/07/30 10:13:10;;;;;;;8.60;2.88;;;25.00;99.90;;;;;;5066753;28;20063;-72
2022/07/30 10:15:36;;;;;;;7.43;2.30;;;24.80;99.90;;;;;;5033967;28;20084;-72
2022/07/30 10:18:04;;;;;;;6.50;2.20;;;25.10;99.90;;;;;;5033905;28;20135;-69
2022/07/30 10:20:30;;;;;;;7.82;2.35;;;25.70;99.90;;;;;;5051580;28;20045;-72
2022/07/30 10:22:57;;;;;;;4.57;1.60;;;25.00;99.90;;;;;;5057181;28;20047;-71
2022/07/30 10:25:25;;;;;;;8.25;2.00;;;24.80;99.90;;;;;;5067510;28;20039;-69
2022/07/30 10:27:52;;;;;;;6.00;1.90;;;24.80;99.90;;;;;;5072138;28;20040;-70
2022/07/30 10:30:18;;;;;;;6.53;1.90;;;24.70;99.90;;;;;;5053229;28;20087;-70
2022/07/30 10:32:44;;;;;;;8.45;2.17;;;24.30;99.90;;;;;;5053404;28;20097;-71
2022/07/30 10:35:12;;;;;;;6.70;1.63;;;24.70;99.90;;;;;;5072786;28;20052;-72
2022/07/30 10:37:47;;;;;;;6.55;1.70;;;25.20;99.90;;;;;;5070326;28;20447;-73
2022/07/30 10:40:29;;;;;;;5.70;1.80;;;25.20;99.90;;;;;;5035101;28;20040;-73
2022/07/30 10:43:26;;;;;;;8.30;1.98;;;25.00;99.90;;;;;;5063060;28;20062;-69
2022/07/30 10:46:22;;;;;;;7.35;1.25;;;25.60;99.90;;;;;;5051189;28;20055;-70
2022/07/30 10:48:48;;;;;;;5.40;1.52;;;26.40;99.90;;;;;;5048694;28;20474;-70
2022/07/30 10:51:14;;;;;;;5.55;1.30;;;26.30;99.90;;;;;;5044086;28;20040;-70
2022/07/30 10:53:45;;;;;;;6.05;1.45;;;26.20;99.90;;;;;;5053055;28;20131;-70
2022/07/30 10:56:17;;;;;;;6.35;1.48;;;25.70;99.90;;;;;;5050907;28;20058;-70
2022/07/30 10:59:06;;;;;;;7.00;1.25;;;25.70;99.90;;;;;;5056776;28;20040;-73
2022/07/30 11:02:06;;;;;;;5.82;1.42;;;25.20;99.90;;;;;;5057663;28;20040;-70
2022/07/30 11:04:31;;;;;;;5.00;1.50;;;25.50;99.90;;;;;;5058546;28;20052;-70
2022/07/30 11:07:28;;;;;;;6.18;1.50;;;25.60;99.90;;;;;;5053619;28;20090;-71
2022/07/30 11:09:56;;;;;;;6.45;1.40;;;25.50;99.90;;;;;;5061020;28;20044;-69
2022/07/30 11:12:40;;;;;;;4.80;1.17;;;24.90;99.90;;;;;;5057797;28;20064;-72
2022/07/30 11:15:07;;;;;;;9.82;1.77;;;25.00;99.90;;;;;;5051234;28;20041;-70
2022/07/30 11:17:59;;;;;;;4.63;1.17;;;24.40;99.90;;;;;;5051414;28;20040;-70
2022/07/30 11:20:25;;;;;;;7.80;1.50;;;24.50;99.90;;;;;;5051139;28;21322;-70
2022/07/30 11:22:52;;;;;;;6.85;1.30;;;24.90;99.90;;;;;;5058301;28;20079;-72
2022/07/30 11:25:21;;;;;;;5.43;1.38;;;25.30;99.90;;;;;;5060059;28;20445;-71
2022/07/30 11:27:49;;;;;;;5.57;1.10;;;25.20;99.90;;;;;;5033226;28;20075;-71
2022/07/30 11:30:14;;;;;;;6.50;1.33;;;25.70;99.90;;;;;;5061319;28;20181;-71
2022/07/30 11:32:41;;;;;;;5.38;1.35;;;25.00;99.90;;;;;;5059497;28;20487;-71
2022/07/30 11:35:20;;;;;;;6.22;0.95;;;25.00;99.90;;;;;;5039989;28;20036;-70
2022/07/30 11:38:08;;;;;;;8.23;1.50;;;24.80;99.90;;;;;;5067126;28;20190;-70
2022/07/30 11:40:34;;;;;;;8.05;1.30;;;24.80;99.90;;;;;;5059203;28;20028;-72
2022/07/30 11:43:34;;;;;;;10.93;1.60;;;24.50;99.90;;;;;;5045679;28;20036;-72
2022/07/30 11:46:13;;;;;;;8.27;1.60;;;24.90;99.90;;;;;;5006156;28;20703;-70
2022/07/30 11:48:41;;;;;;;9.02;1.20;;;25.40;99.90;;;;;;5060521;28;20505;-71
2022/07/30 11:51:08;;;;;;;7.70;1.27;;;25.80;99.90;;;;;;5060856;28;20848;-70
2022/07/30 11:53:34;;;;;;;6.45;1.42;;;26.10;99.90;;;;;;5069917;28;20063;-71
2022/07/30 11:56:01;;;;;;;8.35;1.23;;;26.00;99.90;;;;;;5065779;28;20550;-71
2022/07/30 11:58:31;;;;;;;6.15;1.30;;;26.20;99.90;;;;;;5060324;28;20044;-71
2022/07/30 12:01:17;;;;;;;6.40;1.13;;;26.30;99.90;;;;;;5052487;28;20110;-71
2022/07/30 12:03:44;;;;;;;5.72;1.50;;;26.30;99.90;;;;;;5049069;28;20283;-70
2022/07/30 12:06:18;;;;;;;5.60;0.93;;;26.50;99.90;;;;;;5033948;28;20032;-70
2022/07/30 12:08:45;;;;;;;7.30;1.10;;;26.60;99.90;;;;;;5052180;28;20043;-67
2022/07/30 12:11:11;;;;;;;4.68;0.90;;;26.90;99.90;;;;;;5062219;28;20121;-68
2022/07/30 12:13:38;;;;;;;7.60;1.33;;;27.10;99.90;;;;;;5043962;28;20094;-68
2022/07/30 12:16:09;;;;;;;5.95;1.20;;;26.70;99.90;;;;;;5032517;28;20060;-67
2022/07/30 12:18:35;;;;;;;6.03;1.20;;;27.10;99.90;;;;;;5058094;28;20075;-67
2022/07/30 12:21:14;;;;;;;6.57;1.00;;;26.20;99.90;;;;;;5060866;28;20048;-67
2022/07/30 12:23:42;;;;;;;5.95;1.30;;;26.90;99.90;;;;;;5040119;28;20085;-68
2022/07/30 12:26:19;;;;;;;7.72;0.98;;;26.40;99.90;;;;;;5060183;28;20055;-69
2022/07/30 12:28:45;;;;;;;6.75;1.10;;;26.50;99.90;;;;;;5033904;28;20097;-69
2022/07/30 12:31:14;;;;;;;5.03;1.10;;;26.00;99.90;;;;;;5064162;28;20699;-68
2022/07/30 12:33:40;;;;;;;6.43;0.93;;;25.30;99.90;;;;;;5040551;28;20843;-70
2022/07/30 12:36:05;;;;;;;6.93;1.10;;;24.90;99.90;;;;;;5063143;28;20044;-67
2022/07/30 12:38:43;;;;;;;5.80;1.42;;;25.00;99.90;;;;;;5036325;28;20040;-66
2022/07/30 12:41:09;;;;;;;6.65;1.33;;;24.80;99.90;;;;;;5049889;28;20051;-69
2022/07/30 12:43:50;;;;;;;4.22;1.00;;;24.80;99.90;;;;;;5053141;28;20052;-70